Time;durP1;ratioP1;P1;durP2;ratioP2;P2;SDS_P1;SDS_P2;PMS_P1;PMS_P2;Temp;Humidity;BMP_temperature;BMP_pressure;BME280_temperature;BME280_humidity;BME280_pressure;Samples;Min_cycle;Max_cycle;Signal;HPM_P1;HPM_P2
2021/04/11 00:00:45;;;;;;;69.70;49.20;;;10.90;73.50;;;;;;4914828;29;20553;-81
2021/04/11 00:03:19;;;;;;;73.77;49.20;;;10.80;74.10;;;;;;4923014;29;20543;-82
2021/04/11 00:05:48;;;;;;;65.70;48.53;;;10.60;74.20;;;;;;4923555;29;20236;-80
2021/04/11 00:08:17;;;;;;;74.53;49.90;;;10.60;74.70;;;;;;4928569;29;20208;-82
2021/04/11 00:10:48;;;;;;;71.10;49.03;;;10.60;74.80;;;;;;4918940;29;20224;-84
2021/04/11 00:13:20;;;;;;;71.47;49.27;;;10.70;74.90;;;;;;4923815;29;20205;-81
2021/04/11 00:15:48;;;;;;;70.47;47.97;;;10.70;75.00;;;;;;4914921;29;20218;-83
2021/04/11 00:18:16;;;;;;;70.83;48.90;;;10.60;75.40;;;;;;4918689;29;20222;-81
2021/04/11 00:20:44;;;;;;;73.23;48.70;;;10.60;75.40;;;;;;4912119;29;20251;-80
2021/04/11 00:23:13;;;;;;;71.37;48.77;;;10.50;75.50;;;;;;4908095;29;20219;-83
2021/04/11 00:25:42;;;;;;;72.97;50.13;;;10.40;75.80;;;;;;4907308;29;20591;-81
2021/04/11 00:28:12;;;;;;;75.20;49.40;;;10.30;75.90;;;;;;4907064;29;20215;-81
2021/04/11 00:30:41;;;;;;;72.60;49.27;;;10.20;76.00;;;;;;4904831;29;20215;-82
2021/04/11 00:33:19;;;;;;;68.37;49.27;;;10.10;76.20;;;;;;4886252;29;20208;-84
2021/04/11 00:35:47;;;;;;;70.23;49.80;;;10.00;77.30;;;;;;4904616;29;20250;-82
2021/04/11 00:38:15;;;;;;;69.67;48.90;;;10.10;77.50;;;;;;4898026;29;20251;-82
2021/04/11 00:40:43;;;;;;;72.50;49.63;;;10.00;77.70;;;;;;4916218;29;20238;-81
2021/04/11 00:43:14;;;;;;;76.10;49.97;;;10.10;77.70;;;;;;4923177;29;20203;-81
2021/04/11 00:45:48;;;;;;;73.30;51.40;;;10.00;78.00;;;;;;4909706;29;20239;-81
2021/04/11 00:48:19;;;;;;;71.27;49.13;;;10.00;78.60;;;;;;4915167;29;20201;-82
2021/04/11 00:50:51;;;;;;;71.63;48.37;;;9.90;78.40;;;;;;4900698;29;20234;-80
2021/04/11 00:53:21;;;;;;;73.23;50.13;;;9.90;78.80;;;;;;4913031;29;20635;-80
2021/04/11 00:55:49;;;;;;;68.63;48.23;;;9.80;79.00;;;;;;4911484;29;20218;-81
2021/04/11 00:58:18;;;;;;;65.83;48.13;;;9.80;79.20;;;;;;4896594;29;20580;-80
2021/04/11 01:00:46;;;;;;;67.87;47.67;;;9.80;81.00;;;;;;4916247;29;20303;-84
2021/04/11 01:03:18;;;;;;;69.73;48.73;;;9.70;80.70;;;;;;4925212;29;20205;-80
2021/04/11 01:05:47;;;;;;;80.70;51.20;;;9.70;80.60;;;;;;4910788;29;20217;-81
2021/04/11 01:08:19;;;;;;;70.17;49.47;;;9.60;80.90;;;;;;4927117;29;20210;-80
2021/04/11 01:10:52;;;;;;;67.53;47.97;;;9.60;81.10;;;;;;4927882;29;20191;-78
2021/04/11 01:13:21;;;;;;;71.73;48.73;;;9.50;81.10;;;;;;4930504;29;20199;-82
2021/04/11 01:15:50;;;;;;;71.80;49.10;;;9.60;81.60;;;;;;4920370;29;20262;-80
2021/04/11 01:18:19;;;;;;;71.97;47.07;;;9.60;81.50;;;;;;4921061;29;20214;-82
2021/04/11 01:20:47;;;;;;;65.03;45.57;;;9.50;81.90;;;;;;4918246;29;20233;-79
2021/04/11 01:23:25;;;;;;;70.80;47.27;;;9.60;82.20;;;;;;4912526;29;20228;-82
2021/04/11 01:25:57;;;;;;;70.73;47.57;;;9.50;81.90;;;;;;4911579;29;20204;-83
2021/04/11 01:28:29;;;;;;;71.80;47.83;;;9.40;82.40;;;;;;4915453;29;20222;-83
2021/04/11 01:31:05;;;;;;;75.47;49.80;;;9.30;83.50;;;;;;4910100;29;20202;-85
2021/04/11 01:33:35;;;;;;;73.90;48.83;;;9.20;83.60;;;;;;4923716;29;20203;-81
2021/04/11 01:36:05;;;;;;;69.13;46.83;;;9.20;83.70;;;;;;4916767;29;20203;-80
2021/04/11 01:38:36;;;;;;;71.77;49.40;;;9.10;83.40;;;;;;4912817;29;20419;-79
2021/04/11 01:41:09;;;;;;;69.77;49.03;;;9.00;83.70;;;;;;4913351;29;20231;-81
2021/04/11 01:43:38;;;;;;;68.33;47.53;;;9.00;84.30;;;;;;4912919;29;20203;-81
2021/04/11 01:46:07;;;;;;;64.53;47.00;;;8.90;84.20;;;;;;4916641;29;20222;-81
2021/04/11 01:48:36;;;;;;;70.43;47.50;;;8.80;83.90;;;;;;4914554;29;20676;-82
2021/04/11 01:51:06;;;;;;;69.47;48.70;;;8.80;84.50;;;;;;4917603;29;20213;-82
2021/04/11 01:53:35;;;;;;;71.87;47.13;;;8.60;85.20;;;;;;4912748;29;20218;-81
2021/04/11 01:56:06;;;;;;;72.83;49.27;;;8.50;84.90;;;;;;4904025;29;20826;-83
2021/04/11 01:58:36;;;;;;;69.27;48.33;;;8.40;85.10;;;;;;4913902;29;20203;-83
2021/04/11 02:01:18;;;;;;;69.57;48.60;;;8.30;85.20;;;;;;4905773;29;20361;-82
2021/04/11 02:03:46;;;;;;;71.27;47.33;;;8.20;85.20;;;;;;4913538;29;20587;-82
2021/04/11 02:06:16;;;;;;;72.27;48.67;;;8.10;86.10;;;;;;4910660;29;20217;-83
2021/04/11 02:08:48;;;;;;;69.97;47.97;;;8.00;86.10;;;;;;4918410;29;20694;-82
2021/04/11 02:11:17;;;;;;;69.87;48.90;;;7.80;86.30;;;;;;4915808;29;20738;-81
2021/04/11 02:13:45;;;;;;;73.80;49.00;;;7.70;87.00;;;;;;4906016;29;20328;-84
2021/04/11 02:16:16;;;;;;;70.93;48.93;;;7.70;87.20;;;;;;4907101;29;20212;-81
2021/04/11 02:18:44;;;;;;;72.87;49.33;;;7.60;86.80;;;;;;4910662;29;20700;-82
2021/04/11 02:21:16;;;;;;;75.57;49.73;;;7.50;87.20;;;;;;4908352;29;20233;-80
2021/04/11 02:23:44;;;;;;;69.67;48.77;;;7.40;88.10;;;;;;4916508;29;20217;-82
2021/04/11 02:26:13;;;;;;;72.60;50.33;;;7.60;88.00;;;;;;4900748;29;20960;-84
2021/04/11 02:28:42;;;;;;;67.07;47.07;;;7.40;87.90;;;;;;4910085;29;20258;-83
2021/04/11 02:31:17;;;;;;;70.53;47.67;;;7.40;87.90;;;;;;4912652;29;20215;-85
2021/04/11 02:33:57;;;;;;;70.87;48.27;;;7.40;88.80;;;;;;4927360;29;20212;-82
2021/04/11 02:36:28;;;;;;;75.77;50.10;;;7.40;88.50;;;;;;4929968;28;20188;-82
2021/04/11 02:38:57;;;;;;;70.80;50.53;;;7.40;88.30;;;;;;4929831;28;20187;-83
2021/04/11 02:41:27;;;;;;;70.60;49.13;;;7.40;88.70;;;;;;4932999;28;20217;-81
2021/04/11 02:43:56;;;;;;;81.73;50.60;;;7.40;88.40;;;;;;4927917;28;20253;-81
2021/04/11 02:46:26;;;;;;;77.03;48.63;;;7.40;89.20;;;;;;4917294;29;20247;-82
2021/04/11 02:48:55;;;;;;;75.40;48.97;;;7.40;88.90;;;;;;4929006;28;20201;-82
2021/04/11 02:51:27;;;;;;;75.27;50.23;;;7.40;88.60;;;;;;4924274;28;20217;-81
2021/04/11 02:53:57;;;;;;;73.57;50.10;;;7.20;88.30;;;;;;4919220;29;20209;-81
2021/04/11 02:56:26;;;;;;;77.20;51.50;;;7.10;89.10;;;;;;4929271;29;20238;-81
2021/04/11 02:58:55;;;;;;;75.53;49.77;;;7.10;89.60;;;;;;4929238;29;20184;-82
2021/04/11 03:01:31;;;;;;;74.57;51.03;;;7.00;90.00;;;;;;4933493;28;20234;-82
2021/04/11 03:03:59;;;;;;;79.87;53.57;;;6.90;90.10;;;;;;4928781;28;20183;-83
2021/04/11 03:06:31;;;;;;;76.93;50.77;;;6.90;90.30;;;;;;4917582;29;20290;-82
2021/04/11 03:09:05;;;;;;;70.27;50.50;;;6.80;90.40;;;;;;4926700;29;20285;-84
2021/04/11 03:11:36;;;;;;;73.80;50.70;;;6.60;90.30;;;;;;4932613;28;20262;-81
2021/04/11 03:14:07;;;;;;;82.90;53.57;;;6.50;90.10;;;;;;4929057;28;20268;-81
2021/04/11 03:16:38;;;;;;;80.97;54.13;;;6.30;90.60;;;;;;4925426;29;20241;-81
2021/04/11 03:19:06;;;;;;;83.10;56.17;;;6.40;91.00;;;;;;4934170;28;20196;-80
2021/04/11 03:21:35;;;;;;;80.53;54.70;;;6.10;92.00;;;;;;4923331;28;20651;-82
2021/04/11 03:24:04;;;;;;;87.97;58.67;;;6.10;92.00;;;;;;4931562;28;20199;-83
2021/04/11 03:26:37;;;;;;;85.87;56.30;;;6.10;93.10;;;;;;4923523;29;20207;-82
2021/04/11 03:29:08;;;;;;;80.97;54.27;;;6.10;92.80;;;;;;4926870;29;20766;-83
2021/04/11 03:31:42;;;;;;;82.30;56.33;;;6.10;93.60;;;;;;4915205;29;20249;-82
2021/04/11 03:34:13;;;;;;;86.47;56.23;;;6.00;93.00;;;;;;4925886;29;20212;-79
2021/04/11 03:36:41;;;;;;;88.97;56.10;;;5.70;92.70;;;;;;4921559;29;20302;-83
2021/04/11 03:39:11;;;;;;;86.30;57.00;;;5.60;94.30;;;;;;4922722;29;20397;-85
2021/04/11 03:41:40;;;;;;;87.07;57.13;;;5.50;94.20;;;;;;4925914;29;20228;-81
2021/04/11 03:44:17;;;;;;;86.00;58.07;;;5.50;94.10;;;;;;4933590;29;20220;-82
2021/04/11 03:46:56;;;;;;;91.90;57.20;;;5.40;94.70;;;;;;4911151;29;20198;-80
2021/04/11 03:49:28;;;;;;;73.77;48.70;;;5.30;95.30;;;;;;4921062;29;20220;-80
2021/04/11 03:52:00;;;;;;;83.00;55.27;;;5.30;97.10;;;;;;4922254;29;20207;-80
2021/04/11 03:54:33;;;;;;;85.70;57.07;;;5.30;97.30;;;;;;4929269;29;20206;-82
2021/04/11 03:57:07;;;;;;;76.87;52.67;;;5.30;96.80;;;;;;4924727;29;20258;-81
2021/04/11 03:59:40;;;;;;;71.10;49.00;;;5.30;96.80;;;;;;4928514;29;20191;-81
2021/04/11 04:02:10;;;;;;;77.50;50.83;;;5.30;96.70;;;;;;4929312;28;20234;-81
2021/04/11 04:04:40;;;;;;;76.93;50.70;;;5.40;97.90;;;;;;4926095;29;20239;-79
2021/04/11 04:07:12;;;;;;;62.27;42.73;;;5.40;98.00;;;;;;4918954;28;20715;-84
2021/04/11 04:09:42;;;;;;;58.63;40.97;;;5.50;98.10;;;;;;4912558;29;20776;-82
2021/04/11 04:12:29;;;;;;;60.43;38.37;;;5.60;97.80;;;;;;4904989;29;20203;-82
2021/04/11 04:15:15;;;;;;;53.57;36.90;;;5.70;97.60;;;;;;4899847;29;20209;-80
2021/04/11 04:17:55;;;;;;;57.60;37.50;;;5.70;97.30;;;;;;4919628;29;20199;-81
2021/04/11 04:20:32;;;;;;;41.80;28.97;;;5.80;96.60;;;;;;4905772;29;20312;-82
2021/04/11 04:23:12;;;;;;;37.00;23.60;;;5.90;96.00;;;;;;4911668;29;20214;-81
2021/04/11 04:25:51;;;;;;;37.47;23.30;;;6.00;95.50;;;;;;4911271;29;20218;-86
2021/04/11 04:28:41;;;;;;;35.03;22.07;;;6.20;93.00;;;;;;4919222;29;20665;-81
2021/04/11 04:31:19;;;;;;;27.80;19.37;;;6.30;91.90;;;;;;4900187;29;20222;-82
2021/04/11 04:34:02;;;;;;;30.63;18.37;;;6.40;91.20;;;;;;4903082;29;20349;-77
2021/04/11 04:36:39;;;;;;;24.20;16.17;;;6.50;90.80;;;;;;4907386;29;20808;-79
2021/04/11 04:39:21;;;;;;;27.03;15.63;;;6.80;89.80;;;;;;4919446;29;20295;-82
2021/04/11 04:41:55;;;;;;;24.80;16.00;;;6.80;87.90;;;;;;4903289;29;20313;-80
2021/04/11 04:44:33;;;;;;;20.80;14.13;;;7.00;87.20;;;;;;4922399;29;20222;-79
2021/04/11 04:47:08;;;;;;;21.43;14.03;;;7.20;86.80;;;;;;4917360;29;20207;-80
2021/04/11 04:49:46;;;;;;;23.10;15.27;;;7.30;86.40;;;;;;4911021;29;20241;-81
2021/04/11 04:52:18;;;;;;;23.73;14.70;;;7.50;86.00;;;;;;4919191;29;20209;-81
2021/04/11 04:54:49;;;;;;;21.70;13.90;;;7.60;85.60;;;;;;4922690;29;20231;-80
2021/04/11 04:57:22;;;;;;;20.93;13.90;;;7.70;85.30;;;;;;4925221;29;20221;-80
2021/04/11 05:00:06;;;;;;;22.23;14.40;;;7.80;85.00;;;;;;4933636;28;20201;-79
2021/04/11 05:02:43;;;;;;;22.03;13.93;;;7.80;84.60;;;;;;4924287;29;20221;-80
2021/04/11 05:05:15;;;;;;;19.00;13.23;;;8.00;84.40;;;;;;4914993;29;20255;-82
2021/04/11 05:07:48;;;;;;;18.50;13.30;;;8.10;84.20;;;;;;5052370;23;20325;-83
2021/04/11 05:10:19;;;;;;;20.97;13.17;;;8.30;84.30;;;;;;4953334;28;20217;-83
2021/04/11 05:12:51;;;;;;;20.70;13.40;;;8.20;84.10;;;;;;4948110;28;20454;-80
2021/04/11 05:15:23;;;;;;;20.53;12.90;;;8.20;84.10;;;;;;4950246;28;20203;-83
2021/04/11 05:17:56;;;;;;;18.07;12.90;;;8.30;84.00;;;;;;4949382;28;20193;-80
2021/04/11 05:20:27;;;;;;;20.57;12.83;;;8.40;83.90;;;;;;4943283;28;20209;-83
2021/04/11 05:23:01;;;;;;;18.23;12.63;;;8.50;83.80;;;;;;4949147;28;20189;-83
2021/04/11 05:25:37;;;;;;;18.90;12.90;;;8.50;83.60;;;;;;4942576;28;20217;-81
2021/04/11 05:28:11;;;;;;;19.43;12.47;;;8.60;83.50;;;;;;4947070;28;20381;-82
2021/04/11 05:30:42;;;;;;;19.37;12.47;;;8.70;83.30;;;;;;4949038;28;20293;-82
2021/04/11 05:33:14;;;;;;;16.90;11.77;;;8.80;83.10;;;;;;4947123;28;20211;-80
2021/04/11 05:35:43;;;;;;;18.03;12.70;;;8.90;82.90;;;;;;4944294;28;20209;-84
2021/04/11 05:38:28;;;;;;;16.50;12.47;;;8.90;82.80;;;;;;4941877;28;20198;-82
2021/04/11 05:41:01;;;;;;;17.37;12.60;;;9.10;82.70;;;;;;4946712;28;20230;-81
2021/04/11 05:43:35;;;;;;;19.20;12.20;;;9.20;82.50;;;;;;4944952;28;20201;-82
2021/04/11 05:46:10;;;;;;;20.23;13.33;;;9.30;82.20;;;;;;4944490;28;20201;-81
2021/04/11 05:48:47;;;;;;;16.13;11.70;;;9.40;82.10;;;;;;4944408;28;20232;-79
2021/04/11 05:51:21;;;;;;;17.30;11.80;;;9.50;82.00;;;;;;4942756;29;20220;-80
2021/04/11 05:53:52;;;;;;;17.13;12.20;;;9.60;82.10;;;;;;4945694;29;20214;-80
2021/04/11 05:56:22;;;;;;;18.33;11.90;;;9.70;82.00;;;;;;4940309;29;20242;-83
2021/04/11 05:58:57;;;;;;;18.57;11.53;;;9.80;81.70;;;;;;4947525;28;20237;-81
2021/04/11 06:01:35;;;;;;;23.47;12.07;;;9.90;81.70;;;;;;4943342;28;20503;-81
2021/04/11 06:04:09;;;;;;;16.97;11.20;;;10.00;81.50;;;;;;4945746;28;20202;-82
2021/04/11 06:06:46;;;;;;;14.60;11.23;;;10.10;81.40;;;;;;4941448;28;20195;-81
2021/04/11 06:09:22;;;;;;;16.20;11.53;;;10.20;81.30;;;;;;4945213;28;20607;-81
2021/04/11 06:11:58;;;;;;;15.47;11.07;;;10.50;81.30;;;;;;4945819;28;20200;-82
2021/04/11 06:14:32;;;;;;;17.33;11.57;;;10.40;81.00;;;;;;4946769;28;20217;-81
2021/04/11 06:17:03;;;;;;;20.77;11.87;;;10.60;80.70;;;;;;4941421;29;20291;-81
2021/04/11 06:19:31;;;;;;;17.33;11.37;;;10.70;80.70;;;;;;4947575;29;20207;-82
2021/04/11 06:22:08;;;;;;;17.43;11.57;;;10.80;80.80;;;;;;4939503;29;20318;-81
2021/04/11 06:24:46;;;;;;;13.87;10.63;;;10.90;80.50;;;;;;4939611;29;20242;-81
2021/04/11 06:27:32;;;;;;;14.70;10.70;;;11.00;80.80;;;;;;4929385;29;20209;-81
2021/04/11 06:30:09;;;;;;;13.40;10.73;;;11.10;80.60;;;;;;4945803;29;20225;-80
2021/04/11 06:32:41;;;;;;;15.53;11.40;;;11.20;80.50;;;;;;4935187;29;20205;-83
2021/04/11 06:35:11;;;;;;;15.20;10.47;;;11.30;80.40;;;;;;4939628;29;20208;-84
2021/04/11 06:37:42;;;;;;;14.27;10.33;;;11.40;80.10;;;;;;4943852;29;20207;-81
2021/04/11 06:40:25;;;;;;;15.53;11.57;;;11.50;80.00;;;;;;4939402;28;20210;-80
2021/04/11 06:43:14;;;;;;;13.33;10.30;;;11.50;80.10;;;;;;4932045;29;20229;-82
2021/04/11 06:45:50;;;;;;;18.27;11.00;;;11.60;80.10;;;;;;4925876;29;20206;-83
2021/04/11 06:48:46;;;;;;;14.93;10.80;;;11.80;80.00;;;;;;4927029;28;20210;-82
2021/04/11 06:51:36;;;;;;;15.30;10.93;;;11.80;79.90;;;;;;4924387;29;20273;-81
2021/04/11 06:54:41;;;;;;;14.67;11.17;;;11.90;79.60;;;;;;4936628;28;20242;-81
2021/04/11 06:57:22;;;;;;;15.77;10.67;;;12.00;79.40;;;;;;4943011;29;20245;-80
2021/04/11 07:00:05;;;;;;;16.47;10.50;;;12.20;79.10;;;;;;4946932;28;20262;-81
2021/04/11 07:03:18;;;;;;;12.03;10.30;;;12.20;79.00;;;;;;4936722;28;20655;-81
2021/04/11 07:06:26;;;;;;;12.10;9.97;;;12.40;79.00;;;;;;4932415;29;20292;-82
2021/04/11 07:09:15;;;;;;;14.43;10.77;;;12.50;79.00;;;;;;4938762;28;20363;-80
2021/04/11 07:12:03;;;;;;;14.37;10.73;;;12.60;78.80;;;;;;4934465;29;20202;-83
2021/04/11 07:15:13;;;;;;;18.10;10.20;;;12.60;78.80;;;;;;4941697;28;20204;-81
2021/04/11 07:18:16;;;;;;;15.33;10.27;;;12.80;78.20;;;;;;4923856;29;20223;-81
2021/04/11 07:21:21;;;;;;;15.73;10.30;;;12.80;78.00;;;;;;4934242;28;20209;-81
2021/04/11 07:24:15;;;;;;;16.97;10.83;;;13.00;78.10;;;;;;4926441;29;20211;-82
2021/04/11 07:26:52;;;;;;;15.77;10.93;;;13.10;78.00;;;;;;4929341;28;20210;-81
2021/04/11 07:29:45;;;;;;;15.50;11.20;;;13.10;77.40;;;;;;4926199;29;20213;-81
2021/04/11 07:32:46;;;;;;;14.40;11.23;;;13.30;77.30;;;;;;4929998;29;20209;-83
2021/04/11 07:35:32;;;;;;;15.63;10.80;;;13.40;77.00;;;;;;4930308;29;20209;-81
2021/04/11 07:38:20;;;;;;;14.97;10.70;;;13.50;76.90;;;;;;4933851;29;20206;-80
2021/04/11 07:41:06;;;;;;;15.63;11.30;;;13.70;76.90;;;;;;4933173;28;20214;-82
2021/04/11 07:43:53;;;;;;;14.13;10.17;;;13.90;76.70;;;;;;4933595;29;20210;-82
2021/04/11 07:46:44;;;;;;;14.57;10.73;;;14.00;76.40;;;;;;4930927;29;20290;-81
2021/04/11 07:49:36;;;;;;;13.73;10.70;;;14.20;75.90;;;;;;4926962;29;20214;-83
2021/04/11 07:52:43;;;;;;;15.40;10.80;;;14.40;75.80;;;;;;4929441;29;20202;-81
2021/04/11 07:55:25;;;;;;;15.30;10.67;;;14.50;75.20;;;;;;4939529;29;20199;-82
2021/04/11 07:58:12;;;;;;;15.07;10.07;;;14.60;75.30;;;;;;4947622;28;20229;-80
2021/04/11 08:01:03;;;;;;;15.60;10.77;;;14.60;74.90;;;;;;4940751;28;20206;-81
2021/04/11 08:04:01;;;;;;;14.87;11.33;;;14.50;74.70;;;;;;4937827;29;20281;-78
2021/04/11 08:06:58;;;;;;;14.23;10.80;;;14.50;74.90;;;;;;4935184;28;20205;-79
2021/04/11 08:09:36;;;;;;;14.73;11.13;;;14.40;74.40;;;;;;4950803;28;20204;-81
2021/04/11 08:12:46;;;;;;;14.80;9.97;;;14.40;74.60;;;;;;4944511;28;20199;-82
2021/04/11 08:15:23;;;;;;;14.27;10.63;;;14.50;74.50;;;;;;4946759;28;20816;-84
2021/04/11 08:18:17;;;;;;;12.07;9.63;;;14.50;74.30;;;;;;4947914;28;20210;-83
2021/04/11 08:21:11;;;;;;;13.53;10.70;;;14.50;74.40;;;;;;4938483;29;20225;-82
2021/04/11 08:24:08;;;;;;;11.13;9.53;;;14.50;74.10;;;;;;4950851;28;20202;-82
2021/04/11 08:27:02;;;;;;;14.43;9.83;;;14.50;73.70;;;;;;4941864;29;20328;-82
2021/04/11 08:30:05;;;;;;;12.70;9.60;;;14.60;73.70;;;;;;4912257;29;20218;-82
2021/04/11 08:33:16;;;;;;;11.07;9.33;;;14.70;73.50;;;;;;4930725;29;20205;-83
2021/04/11 08:36:17;;;;;;;13.10;9.63;;;14.70;73.40;;;;;;4932840;29;20739;-83
2021/04/11 08:39:05;;;;;;;9.70;8.20;;;14.80;73.40;;;;;;4893640;29;20226;-82
2021/04/11 08:41:53;;;;;;;10.10;7.50;;;14.90;73.00;;;;;;4937049;29;20230;-85
2021/04/11 08:44:33;;;;;;;10.30;8.10;;;15.00;72.60;;;;;;4935710;29;20201;-79
2021/04/11 08:47:14;;;;;;;11.23;8.23;;;15.00;72.30;;;;;;4939851;28;20210;-81
2021/04/11 08:49:46;;;;;;;10.77;7.93;;;15.10;72.20;;;;;;4942528;29;20206;-82
2021/04/11 08:52:27;;;;;;;9.20;8.17;;;15.30;72.30;;;;;;4950291;29;20210;-81
2021/04/11 08:55:06;;;;;;;12.53;7.80;;;15.30;72.20;;;;;;4948727;28;20206;-82
2021/04/11 08:57:56;;;;;;;9.87;7.50;;;15.40;70.90;;;;;;4934178;29;20515;-85
2021/04/11 09:00:29;;;;;;;8.80;7.27;;;15.50;71.00;;;;;;4933828;29;20201;-83
2021/04/11 09:03:27;;;;;;;10.63;7.07;;;15.60;70.40;;;;;;4927247;28;20222;-81
2021/04/11 09:06:05;;;;;;;8.70;6.53;;;15.70;70.80;;;;;;4945465;28;20260;-83
2021/04/11 09:08:38;;;;;;;9.77;6.53;;;15.70;69.90;;;;;;4946843;28;20982;-83
2021/04/11 09:11:32;;;;;;;7.40;5.87;;;15.80;69.20;;;;;;4945524;28;20186;-82
2021/04/11 09:14:15;;;;;;;7.80;6.30;;;15.80;69.00;;;;;;4945317;28;20232;-84
2021/04/11 09:17:00;;;;;;;8.77;6.30;;;15.80;69.40;;;;;;4947281;28;20202;-80
2021/04/11 09:19:34;;;;;;;7.03;5.33;;;15.90;69.10;;;;;;4940637;29;20242;-84
2021/04/11 09:22:23;;;;;;;7.97;5.87;;;16.00;68.60;;;;;;4937170;29;20287;-82
2021/04/11 09:25:00;;;;;;;7.97;5.60;;;16.00;68.70;;;;;;4942443;29;20221;-84
2021/04/11 09:28:05;;;;;;;8.57;5.40;;;16.10;68.40;;;;;;4941178;28;20285;-85
2021/04/11 09:30:53;;;;;;;7.40;5.23;;;16.10;67.70;;;;;;4947412;28;20214;-83
2021/04/11 09:33:52;;;;;;;7.13;4.77;;;16.20;67.60;;;;;;4935510;29;20285;-81
2021/04/11 09:36:32;;;;;;;8.83;4.40;;;16.30;67.00;;;;;;4953629;28;20458;-81
2021/04/11 09:39:17;;;;;;;7.37;4.40;;;16.40;66.10;;;;;;4939370;28;20648;-82
2021/04/11 09:42:05;;;;;;;7.80;4.27;;;16.40;66.10;;;;;;4940230;29;20240;-81
2021/04/11 09:44:59;;;;;;;6.10;4.03;;;16.40;65.00;;;;;;4934971;29;20221;-83
2021/04/11 09:47:58;;;;;;;4.77;3.30;;;16.60;64.60;;;;;;4947547;28;20205;-83
2021/04/11 09:50:37;;;;;;;5.10;3.63;;;16.80;63.20;;;;;;4946399;28;20251;-80
2021/04/11 09:53:38;;;;;;;11.13;4.07;;;17.00;62.50;;;;;;4941670;28;20202;-85
2021/04/11 09:56:19;;;;;;;4.37;3.70;;;17.00;62.30;;;;;;4931567;29;20198;-83
2021/04/11 09:58:58;;;;;;;3.40;3.10;;;17.10;62.30;;;;;;4926922;29;20213;-82
2021/04/11 10:01:37;;;;;;;5.33;3.60;;;17.20;60.60;;;;;;4936031;29;20627;-81
2021/04/11 10:04:19;;;;;;;3.93;3.30;;;17.20;60.50;;;;;;4927834;29;20205;-81
2021/04/11 10:07:02;;;;;;;4.90;2.87;;;17.40;59.10;;;;;;4935178;29;20291;-82
2021/04/11 10:09:47;;;;;;;5.73;3.90;;;17.40;58.50;;;;;;4926757;29;20576;-83
2021/04/11 10:12:32;;;;;;;5.33;3.63;;;17.40;58.70;;;;;;4933663;29;20286;-80
2021/04/11 10:15:07;;;;;;;7.40;3.87;;;17.40;57.30;;;;;;4931065;29;20201;-83
2021/04/11 10:17:51;;;;;;;5.37;3.60;;;17.40;57.30;;;;;;4924194;29;20444;-84
2021/04/11 10:20:24;;;;;;;5.60;3.70;;;17.50;57.80;;;;;;4934971;28;20215;-82
2021/04/11 10:22:58;;;;;;;3.90;3.43;;;17.60;57.70;;;;;;4926062;29;20221;-84
2021/04/11 10:25:35;;;;;;;4.40;3.57;;;17.70;58.20;;;;;;4934281;29;20229;-81
2021/04/11 10:28:20;;;;;;;4.40;3.23;;;17.60;56.80;;;;;;4932403;29;20808;-84
2021/04/11 10:30:56;;;;;;;4.70;3.13;;;17.60;56.20;;;;;;4936908;28;20593;-82
2021/04/11 10:33:32;;;;;;;5.20;3.13;;;17.70;55.60;;;;;;4935496;29;20675;-81
2021/04/11 10:36:06;;;;;;;3.97;3.03;;;17.80;54.60;;;;;;4931400;29;21334;-83
2021/04/11 10:38:39;;;;;;;4.77;2.93;;;17.80;55.10;;;;;;4929823;29;20761;-83
2021/04/11 10:41:25;;;;;;;6.23;3.03;;;17.90;56.10;;;;;;4927625;29;20202;-84
2021/04/11 10:44:09;;;;;;;6.63;2.90;;;18.00;54.20;;;;;;4936244;28;20213;-81
2021/04/11 10:46:50;;;;;;;3.37;3.07;;;17.90;54.90;;;;;;4922742;29;20211;-81
2021/04/11 10:49:39;;;;;;;4.20;2.50;;;18.00;53.30;;;;;;4933175;29;20240;-83
2021/04/11 10:52:23;;;;;;;6.67;3.07;;;18.00;51.90;;;;;;4937838;29;20225;-82
2021/04/11 10:55:16;;;;;;;6.00;3.17;;;18.00;52.60;;;;;;4938366;28;20562;-83
2021/04/11 10:58:15;;;;;;;3.10;2.70;;;18.10;51.50;;;;;;4939256;29;20612;-83
2021/04/11 11:00:57;;;;;;;4.90;2.87;;;18.10;51.20;;;;;;4943630;29;20274;-82
2021/04/11 11:03:58;;;;;;;4.57;3.30;;;18.10;51.70;;;;;;4934508;29;20225;-84
2021/04/11 11:07:04;;;;;;;4.30;2.87;;;18.30;51.30;;;;;;4913540;29;20405;-82
2021/04/11 11:09:38;;;;;;;6.77;3.13;;;18.30;51.70;;;;;;4937762;29;20186;-82
2021/04/11 11:12:26;;;;;;;3.60;3.23;;;18.40;52.40;;;;;;4936704;29;20334;-82
2021/04/11 11:15:14;;;;;;;3.57;3.10;;;18.40;52.50;;;;;;4949276;28;20216;-84
2021/04/11 11:18:16;;;;;;;6.53;3.43;;;18.50;51.60;;;;;;4940059;28;20630;-83
2021/04/11 11:20:56;;;;;;;5.27;3.17;;;18.30;51.10;;;;;;4938160;29;20285;-80
2021/04/11 11:23:53;;;;;;;7.23;3.13;;;18.20;51.60;;;;;;4932668;29;20229;-82
2021/04/11 11:26:44;;;;;;;6.60;3.10;;;18.40;52.30;;;;;;4933622;29;20210;-81
2021/04/11 11:29:34;;;;;;;5.27;3.40;;;18.60;51.70;;;;;;4935410;29;20202;-83
2021/04/11 11:32:08;;;;;;;5.27;3.27;;;18.70;50.70;;;;;;4929862;28;20211;-82
2021/04/11 11:34:51;;;;;;;6.00;3.60;;;18.60;50.30;;;;;;4937721;29;20206;-80
2021/04/11 11:37:41;;;;;;;5.50;3.07;;;18.40;51.50;;;;;;4935988;29;20198;-84
2021/04/11 11:40:25;;;;;;;4.83;3.20;;;18.50;51.10;;;;;;4949485;28;20270;-82
2021/04/11 11:43:10;;;;;;;7.37;3.30;;;18.60;51.10;;;;;;4936129;29;20328;-83
2021/04/11 11:45:47;;;;;;;7.73;3.60;;;18.60;51.20;;;;;;4927679;29;20202;-84
2021/04/11 11:48:35;;;;;;;5.03;3.57;;;18.60;51.10;;;;;;4938718;28;20210;-83
2021/04/11 11:51:10;;;;;;;7.53;3.47;;;18.50;51.50;;;;;;4938937;29;20263;-83
2021/04/11 11:53:42;;;;;;;4.57;4.00;;;18.60;51.70;;;;;;4934524;28;20221;-84
2021/04/11 11:56:22;;;;;;;4.03;3.63;;;18.70;51.40;;;;;;4924571;29;20648;-83
2021/04/11 11:58:57;;;;;;;7.80;3.83;;;18.60;51.20;;;;;;4930507;29;20201;-83
2021/04/11 12:01:39;;;;;;;6.73;3.77;;;18.50;51.20;;;;;;4927667;29;20201;-83
2021/04/11 12:04:29;;;;;;;6.47;3.10;;;18.60;51.60;;;;;;4936482;29;20178;-83
2021/04/11 12:07:00;;;;;;;4.73;3.10;;;18.80;50.30;;;;;;4923390;28;20203;-83
2021/04/11 12:09:35;;;;;;;6.37;3.50;;;18.90;49.50;;;;;;4944147;29;20305;-81
2021/04/11 12:12:10;;;;;;;6.73;3.10;;;19.00;49.90;;;;;;4938431;28;20206;-83
2021/04/11 12:14:45;;;;;;;4.53;3.03;;;19.00;49.80;;;;;;4928937;28;20209;-82
2021/04/11 12:17:23;;;;;;;6.93;2.73;;;19.10;50.70;;;;;;4933738;29;20210;-80
2021/04/11 12:19:59;;;;;;;5.47;3.30;;;19.30;50.00;;;;;;4936943;29;20794;-82
2021/04/11 12:22:34;;;;;;;6.33;3.70;;;19.50;49.60;;;;;;4946924;29;20210;-85
2021/04/11 12:25:15;;;;;;;5.60;2.90;;;19.50;48.70;;;;;;4950483;28;20178;-81
2021/04/11 12:27:45;;;;;;;4.83;3.43;;;19.50;48.80;;;;;;4943892;28;20207;-82
2021/04/11 12:30:26;;;;;;;4.20;2.90;;;19.50;49.10;;;;;;4936178;29;20210;-81
2021/04/11 12:33:16;;;;;;;4.53;3.17;;;19.30;49.10;;;;;;4928351;29;20215;-83
2021/04/11 12:35:55;;;;;;;9.20;3.20;;;19.30;49.20;;;;;;4928655;29;20214;-81
2021/04/11 12:38:30;;;;;;;5.03;3.13;;;19.40;49.40;;;;;;4943421;28;20187;-83
2021/04/11 12:41:03;;;;;;;4.27;3.20;;;19.50;48.80;;;;;;4949924;28;20193;-81
2021/04/11 12:43:41;;;;;;;7.73;3.77;;;19.50;48.50;;;;;;4942017;28;20241;-81
2021/04/11 12:46:17;;;;;;;4.23;3.20;;;19.60;48.70;;;;;;4933131;29;20237;-83
2021/04/11 12:48:57;;;;;;;4.13;2.97;;;19.60;49.20;;;;;;4942415;28;20186;-83
2021/04/11 12:51:31;;;;;;;4.50;3.10;;;19.70;48.70;;;;;;4946005;28;20197;-83
2021/04/11 12:54:14;;;;;;;5.53;3.20;;;19.80;48.20;;;;;;4975068;23;20297;-84
2021/04/11 12:56:59;;;;;;;4.20;3.17;;;19.80;48.10;;;;;;4931436;29;20206;-83
2021/04/11 12:59:43;;;;;;;5.60;3.27;;;19.70;47.80;;;;;;4954173;23;20367;-83
2021/04/11 13:02:16;;;;;;;4.53;3.30;;;19.80;48.40;;;;;;4944849;28;20226;-82
2021/04/11 13:04:52;;;;;;;4.40;3.30;;;20.00;48.50;;;;;;4938259;29;20213;-82
2021/04/11 13:07:28;;;;;;;6.57;3.43;;;20.00;48.80;;;;;;4933264;29;20685;-81
2021/04/11 13:10:15;;;;;;;4.90;3.10;;;20.10;48.30;;;;;;4931396;29;20215;-80
2021/04/11 13:12:51;;;;;;;5.23;2.97;;;20.30;47.70;;;;;;4938520;28;20229;-83
2021/04/11 13:15:26;;;;;;;5.57;3.23;;;20.60;47.80;;;;;;4944849;28;20285;-83
2021/04/11 13:18:08;;;;;;;7.63;3.10;;;20.70;47.00;;;;;;4943208;28;20203;-81
2021/04/11 13:20:43;;;;;;;8.17;3.30;;;20.90;47.70;;;;;;4944261;29;20209;-82
2021/04/11 13:23:26;;;;;;;4.20;2.80;;;21.20;47.60;;;;;;4942845;28;20336;-81
2021/04/11 13:26:03;;;;;;;4.82;3.03;;;21.40;45.40;;;;;;4936800;29;20305;-84
2021/04/11 13:28:43;;;;;;;4.53;2.70;;;21.60;44.60;;;;;;4941461;28;20357;-85
2021/04/11 13:31:18;;;;;;;7.43;3.15;;;21.40;44.30;;;;;;4946283;29;20201;-83
2021/04/11 13:33:54;;;;;;;3.50;2.85;;;21.10;43.60;;;;;;4943363;29;20204;-82
2021/04/11 13:36:42;;;;;;;4.50;3.40;;;20.90;44.50;;;;;;4942376;29;20218;-83